Bellevue, Iowa
Current Conditions -  °F | °C
As of 12:53 PM on Monday 20 Oct 2014 (Local Time) from KDBQ Reporting Station
Clear Clear  
Wind Chill: 62°   Ceiling: Unl
Heat Index: 62°   Visibility: 10mi
Dew Point: 45°   Wind: 14mph
Humidity: 53%   Direction: 330°NNW
Pressure: 29.93"   Gusts: 23mph
Location:  42.26°N, 90.42°W
Report Text: KDBQ 201753Z 33012G20KT 10SM CLR 17/07 A2993 RMK AO2 SLP139 T01670072 10167 20089 58001 $
Loading
Personal Weather Stations






























Interactive Weather Map
Tropical Storm Tracking
New forecast layout! Learn more

10-Day Weather Forecast

Advertisements
Track Severe Weather on mobile